Terminal Aerodrome Forecast
Issued by NWS

Home | Current Version | Previous Version | Text Only | Print | Product List | Glossary On
Versions: 1 2 3 4 5 6 7 8 9 10 11 12 13 14 15 16 17 18 19 20 21 22 23 24
000
FTUS41 KOKX 281700
TAFGON
TAF
KGON 281730Z 2818/2918 28009KT P6SM SCT030 BKN100
     FM290100 32007KT P6SM FEW030 BKN100
     FM290800 33006KT P6SM BKN150
     FM291300 33008KT P6SM SCT250=

USA.gov is the U.S. government's official web portal to all federal, state and local government web resources and services.